Haines Airport


Codes: PAHN/HNS
Name: Haines Airport
City: Haines
Country: United States
Elevation: 15 ft.
Wikipedia:

Photos at Haines Airport


   Photos courtesy of SpottingLog. You can add your own sightings and photos by signing up for a free trial today.



No photos found.

Weather at Haines Airport


Time (UTC)DescriptionTempratureWindCloud coverageVisibilityPressureHumidity
13-Jun-2024 03:00Scattered Clouds13°C7 mph, S47%10000m1021hPa57%
13-Jun-2024 06:00Scattered Clouds11°C4 mph, S45%10000m1022hPa66%
13-Jun-2024 09:00Broken Clouds8°C4 mph, SW78%10000m1022hPa74%
13-Jun-2024 12:00Overcast Clouds8°C2 mph, W85%10000m1022hPa74%
13-Jun-2024 15:00Broken Clouds10°C4 mph, NW79%10000m1021hPa68%
13-Jun-2024 18:00Overcast Clouds12°C2 mph, W86%6698m1019hPa59%
13-Jun-2024 21:00Overcast Clouds13°C4 mph, S92%6430m1018hPa60%
14-Jun-2024 00:00Overcast Clouds13°C9 mph, S96%6768m1017hPa59%
14-Jun-2024 03:00Overcast Clouds12°C7 mph, SE100%10000m1016hPa70%
14-Jun-2024 06:00Overcast Clouds10°C7 mph, SE99%10000m1016hPa79%
14-Jun-2024 09:00Overcast Clouds10°C4 mph, S91%10000m1015hPa84%
14-Jun-2024 12:00Light Rain9°C7 mph, S96%4875m1016hPa92%
14-Jun-2024 15:00Light Rain7°C9 mph, SE100%364m1017hPa96%
14-Jun-2024 18:00Light Rain7°C7 mph, SE100%313m1019hPa94%
14-Jun-2024 21:00Light Rain7°C2 mph, SE100%577m1020hPa94%
15-Jun-2024 00:00Moderate Rain9°C4 mph, SE100%2630m1020hPa87%
15-Jun-2024 03:00Light Rain10°C7 mph, NW83%6451m1020hPa81%
15-Jun-2024 06:00Broken Clouds10°C4 mph, NW80%6950m1020hPa87%
15-Jun-2024 09:00Broken Clouds10°C4 mph, NW57%8669m1019hPa85%
15-Jun-2024 12:00Scattered Clouds9°C9 mph, NW43%10000m1018hPa84%
15-Jun-2024 15:00Few Clouds13°C7 mph, NW20%10000m1017hPa77%
15-Jun-2024 18:00Few Clouds16°C2 mph, NW18%6428m1017hPa67%
15-Jun-2024 21:00Clear Sky18°C4 mph, S10%6428m1017hPa61%
16-Jun-2024 00:00Few Clouds18°C7 mph, S13%6433m1017hPa63%
16-Jun-2024 03:00Scattered Clouds17°C9 mph, S50%6447m1017hPa69%
16-Jun-2024 06:00Scattered Clouds13°C2 mph, S46%6456m1019hPa86%
16-Jun-2024 09:00Broken Clouds12°C2 mph, W52%6576m1020hPa90%
16-Jun-2024 12:00Scattered Clouds11°C2 mph, W38%7171m1020hPa92%
16-Jun-2024 15:00Few Clouds13°C2 mph, SW23%7033m1020hPa85%
16-Jun-2024 18:00Scattered Clouds15°C4 mph, S38%6309m1018hPa79%
16-Jun-2024 21:00Scattered Clouds17°C4 mph, S46%6327m1017hPa75%
17-Jun-2024 00:00Scattered Clouds19°C7 mph, S45%6429m1015hPa68%
17-Jun-2024 03:00Light Rain18°C7 mph, S14%6564m1014hPa72%
17-Jun-2024 06:00Few Clouds14°C2 mph, S14%6676m1015hPa88%
17-Jun-2024 09:00Few Clouds13°C0 mph, NW14%7421m1015hPa92%
17-Jun-2024 12:00Few Clouds12°C2 mph, NW14%1030m1015hPa93%
17-Jun-2024 15:00Scattered Clouds13°C0 mph, S26%7796m1014hPa88%
17-Jun-2024 18:00Scattered Clouds15°C4 mph, S30%6456m1013hPa79%
17-Jun-2024 21:00Scattered Clouds17°C7 mph, S34%6348m1012hPa76%
18-Jun-2024 00:00Scattered Clouds18°C11 mph, S30%6919m1011hPa72%